Terminal Aerodrome Forecast
Issued by NWS

Home | Current Version | Previous Version | Text Only | Print | Product List | Glossary On
Versions: 1 2 3 4 5 6 7 8 9 10 11 12 13 14 15 16 17 18 19 20 21
000
FTUS43 KIND 050500
TAFHUF
TAF
KHUF 050526Z 0506/0606 33008KT P6SM BKN200
     FM051300 34008KT P6SM SCT200
     FM051700 33007KT P6SM BKN025
     FM060100 00000KT P6SM SCT250=

USA.gov is the U.S. government's official web portal to all federal, state and local government web resources and services.